Time;durP1;ratioP1;P1;durP2;ratioP2;P2;SDS_P1;SDS_P2;PMS_P1;PMS_P2;Temp;Humidity;BMP_temperature;BMP_pressure;BME280_temperature;BME280_humidity;BME280_pressure;Samples;Min_cycle;Max_cycle;Signal;HPM_P1;HPM_P2
2023/03/08 00:00:31;;;;;;;9.60;5.47;;;;;;;2.68;55.55;94152.19;5029280;28;20186;-76
2023/03/08 00:02:57;;;;;;;10.50;5.60;;;;;;;2.68;55.87;94153.00;5020827;28;20258;-77
2023/03/08 00:05:22;;;;;;;9.83;6.00;;;;;;;2.76;55.82;94152.34;5024330;28;20696;-77
2023/03/08 00:07:47;;;;;;;10.20;6.27;;;;;;;2.73;55.85;94155.13;5028452;28;20552;-77
2023/03/08 00:10:13;;;;;;;9.63;6.00;;;;;;;2.70;55.74;94166.47;5017796;28;20203;-78
2023/03/08 00:12:38;;;;;;;8.70;5.83;;;;;;;2.73;56.11;94167.97;5028685;28;20195;-77
2023/03/08 00:15:04;;;;;;;9.50;5.53;;;;;;;2.68;56.23;94175.25;5022983;28;20196;-78
2023/03/08 00:17:29;;;;;;;10.43;5.93;;;;;;;2.74;55.81;94170.41;5016516;28;20274;-77
2023/03/08 00:19:56;;;;;;;8.13;5.47;;;;;;;2.58;56.79;94177.81;5047045;28;20202;-77
2023/03/08 00:22:21;;;;;;;9.30;6.60;;;;;;;2.64;56.89;94181.56;5017738;28;20190;-79
2023/03/08 00:24:46;;;;;;;9.43;5.73;;;;;;;2.62;56.71;94194.53;5033311;28;20255;-76
2023/03/08 00:27:12;;;;;;;8.30;5.87;;;;;;;2.76;56.23;94188.22;5031877;28;20198;-77
2023/03/08 00:29:37;;;;;;;9.23;5.77;;;;;;;2.84;56.32;94193.50;5050889;28;20182;-77
2023/03/08 00:32:02;;;;;;;8.67;5.70;;;;;;;2.70;56.89;94191.31;5045466;28;20187;-77
2023/03/08 00:34:27;;;;;;;9.40;5.80;;;;;;;2.69;57.25;94187.94;5055769;28;20175;-77
2023/03/08 00:36:53;;;;;;;9.43;5.60;;;;;;;2.72;56.98;94181.72;5031624;28;20218;-77
2023/03/08 00:39:18;;;;;;;11.17;5.50;;;;;;;2.48;57.18;94167.53;5041920;28;20212;-78
2023/03/08 00:41:43;;;;;;;8.27;5.30;;;;;;;2.59;56.72;94161.47;5048623;28;20186;-77
2023/03/08 00:44:08;;;;;;;9.63;5.27;;;;;;;2.40;57.36;94154.59;5037071;28;20198;-77
2023/03/08 00:46:34;;;;;;;7.70;4.70;;;;;;;2.44;57.24;94153.38;5037825;28;20218;-77
2023/03/08 00:48:59;;;;;;;11.83;5.90;;;;;;;2.49;56.85;94145.28;5038312;28;20183;-77
2023/03/08 00:51:25;;;;;;;10.03;6.07;;;;;;;2.30;56.76;94156.31;5040027;28;20202;-78
2023/03/08 00:53:50;;;;;;;7.93;5.50;;;;;;;2.32;57.08;94154.44;5045899;28;20245;-78
2023/03/08 00:56:15;;;;;;;13.47;6.90;;;;;;;2.34;56.95;94160.22;5035107;28;20207;-77
2023/03/08 00:58:41;;;;;;;11.47;6.27;;;;;;;2.30;57.07;94150.34;5039121;28;20215;-77
2023/03/08 01:01:08;;;;;;;9.07;5.80;;;;;;;2.24;57.28;94146.59;5034790;28;20253;-79
2023/03/08 01:03:34;;;;;;;10.77;5.77;;;;;;;2.29;57.29;94141.88;5040187;28;20206;-77
2023/03/08 01:06:05;;;;;;;7.50;5.47;;;;;;;2.26;57.36;94142.94;5039505;28;20235;-77
2023/03/08 01:08:30;;;;;;;11.50;6.20;;;;;;;2.17;57.37;94145.50;5032590;28;20191;-78
2023/03/08 01:10:57;;;;;;;9.53;5.70;;;;;;;2.12;57.88;94139.94;5051917;28;20190;-77
2023/03/08 01:13:24;;;;;;;8.93;5.97;;;;;;;2.05;57.96;94129.44;5034471;28;20179;-79
2023/03/08 01:15:49;;;;;;;10.13;5.73;;;;;;;2.02;57.68;94134.78;5025031;28;20238;-78
2023/03/08 01:18:15;;;;;;;9.87;6.13;;;;;;;1.97;58.38;94132.63;5035042;28;20238;-79
2023/03/08 01:20:41;;;;;;;8.07;5.73;;;;;;;1.92;58.26;94123.72;5048888;28;20206;-78
2023/03/08 01:23:06;;;;;;;9.73;6.03;;;;;;;1.79;58.97;94113.72;5029013;28;20196;-79
2023/03/08 01:25:31;;;;;;;9.77;5.53;;;;;;;1.73;59.16;94108.28;5035047;28;20215;-78
2023/03/08 01:27:57;;;;;;;9.17;5.73;;;;;;;1.60;59.63;94106.78;5038160;28;20650;-78
2023/03/08 01:30:22;;;;;;;8.30;6.00;;;;;;;1.56;60.03;94104.59;5033612;28;20224;-79
2023/03/08 01:32:47;;;;;;;9.93;6.67;;;;;;;1.39;60.72;94099.13;5034160;28;20647;-77
2023/03/08 01:35:12;;;;;;;10.97;6.30;;;;;;;1.42;60.45;94085.28;5032773;28;20222;-79
2023/03/08 01:37:38;;;;;;;12.20;7.20;;;;;;;1.44;60.73;94087.72;5045735;28;20188;-78
2023/03/08 01:40:04;;;;;;;12.50;7.27;;;;;;;1.28;61.69;94094.09;5038325;28;20191;-79
2023/03/08 01:42:30;;;;;;;12.20;7.57;;;;;;;1.12;62.76;94086.06;5034412;28;20193;-79
2023/03/08 01:45:02;;;;;;;11.33;7.90;;;;;;;1.24;62.48;94079.97;5040212;28;20190;-79
2023/03/08 01:47:30;;;;;;;12.97;7.83;;;;;;;1.25;62.47;94078.22;5029852;28;20186;-78
2023/03/08 01:49:58;;;;;;;11.13;7.67;;;;;;;1.22;62.81;94081.81;5036728;28;20186;-79
2023/03/08 01:52:29;;;;;;;13.03;8.43;;;;;;;1.10;63.41;94081.09;5033324;28;20610;-78
2023/03/08 01:54:57;;;;;;;14.87;7.93;;;;;;;1.08;63.38;94074.50;5028059;28;20187;-77
2023/03/08 01:57:25;;;;;;;12.67;8.70;;;;;;;1.00;64.15;94069.19;5031768;28;20194;-78
2023/03/08 01:59:52;;;;;;;12.43;7.93;;;;;;;0.98;64.18;94071.88;5033349;28;20251;-78
2023/03/08 02:02:22;;;;;;;12.50;8.23;;;;;;;1.09;64.02;94074.34;5034655;28;20195;-78
2023/03/08 02:04:47;;;;;;;13.57;8.63;;;;;;;1.05;63.90;94075.53;5031819;28;20554;-78
2023/03/08 02:07:12;;;;;;;17.97;9.37;;;;;;;1.06;63.98;94072.06;5030662;28;20225;-77
2023/03/08 02:09:37;;;;;;;11.10;7.80;;;;;;;1.03;63.84;94074.03;5025320;28;20178;-78
2023/03/08 02:12:05;;;;;;;11.47;7.63;;;;;;;1.10;64.21;94075.16;5024369;28;20194;-78
2023/03/08 02:14:30;;;;;;;14.77;8.73;;;;;;;1.08;64.48;94059.16;5037569;28;20191;-79
2023/03/08 02:16:55;;;;;;;10.90;7.50;;;;;;;1.00;64.38;94051.28;5030843;28;20203;-78
2023/03/08 02:19:31;;;;;;;13.90;8.27;;;;;;;1.11;64.17;94056.31;5023961;28;20221;-78
2023/03/08 02:21:56;;;;;;;15.20;8.77;;;;;;;1.02;64.44;94042.56;5023067;28;20248;-78
2023/03/08 02:24:23;;;;;;;13.20;8.17;;;;;;;1.05;64.56;94054.28;5032739;28;20191;-78
2023/03/08 02:26:50;;;;;;;13.30;7.40;;;;;;;0.91;64.46;94050.31;5034530;28;20211;-78
2023/03/08 02:29:15;;;;;;;10.27;7.03;;;;;;;0.95;64.26;94046.56;5040142;28;20292;-78
2023/03/08 02:31:41;;;;;;;11.53;7.27;;;;;;;1.16;63.66;94035.50;5035919;28;20191;-78
2023/03/08 02:34:06;;;;;;;14.17;7.87;;;;;;;1.12;63.92;94032.38;5034495;28;20285;-78
2023/03/08 02:36:31;;;;;;;11.50;7.17;;;;;;;1.27;63.28;94023.44;5033240;28;20241;-77
2023/03/08 02:38:56;;;;;;;12.10;8.03;;;;;;;1.19;63.62;94025.00;5045254;28;20202;-78
2023/03/08 02:41:22;;;;;;;13.33;6.70;;;;;;;1.32;63.21;94023.84;5040789;28;20256;-79
2023/03/08 02:43:47;;;;;;;11.20;7.30;;;;;;;1.25;63.34;94016.84;5032171;28;20678;-78
2023/03/08 02:46:13;;;;;;;11.67;7.20;;;;;;;1.33;63.33;94024.69;5038205;28;20215;-78
2023/03/08 02:48:38;;;;;;;12.70;7.30;;;;;;;1.29;63.80;94013.88;5023296;28;20182;-78
2023/03/08 02:51:04;;;;;;;13.43;8.57;;;;;;;1.33;63.75;94011.88;5030427;28;20186;-78
2023/03/08 02:53:29;;;;;;;13.70;8.00;;;;;;;1.26;63.87;94009.03;5022623;28;20663;-78
2023/03/08 02:55:54;;;;;;;14.57;8.03;;;;;;;1.38;63.34;94002.88;5033177;28;20298;-79
2023/03/08 02:58:20;;;;;;;13.23;8.57;;;;;;;1.42;63.77;93993.22;5032366;28;20210;-79
2023/03/08 03:00:45;;;;;;;14.23;8.20;;;;;;;1.39;63.51;93993.44;5023930;28;20187;-79
2023/03/08 03:03:10;;;;;;;12.53;8.30;;;;;;;1.46;63.28;93981.75;5041477;28;20465;-79
2023/03/08 03:05:41;;;;;;;13.67;7.90;;;;;;;1.41;63.34;93971.94;5023791;28;20202;-79
2023/03/08 03:08:07;;;;;;;15.57;8.20;;;;;;;1.51;62.68;93971.97;5021951;28;20266;-79
2023/03/08 03:10:34;;;;;;;12.23;7.80;;;;;;;1.47;63.23;93965.47;5034360;28;20194;-78
2023/03/08 03:12:59;;;;;;;13.70;8.37;;;;;;;1.49;62.94;93965.34;5023580;28;20191;-77
2023/03/08 03:15:25;;;;;;;10.87;7.83;;;;;;;1.47;62.93;93964.66;5036282;28;20221;-78
2023/03/08 03:17:50;;;;;;;12.63;8.57;;;;;;;1.37;63.29;93960.34;5022404;28;20786;-78
2023/03/08 03:20:15;;;;;;;13.93;8.13;;;;;;;1.37;63.38;93960.34;5027225;28;20655;-79
2023/03/08 03:22:40;;;;;;;12.87;7.77;;;;;;;1.32;63.73;93959.91;5026044;28;20206;-78
2023/03/08 03:25:06;;;;;;;14.67;8.20;;;;;;;1.22;63.85;93955.72;5031536;28;20215;-78
2023/03/08 03:27:31;;;;;;;13.50;8.23;;;;;;;1.17;63.97;93953.56;4996955;28;20195;-78
2023/03/08 03:29:57;;;;;;;13.57;7.73;;;;;;;1.21;63.81;93948.97;5022290;28;20187;-79
2023/03/08 03:32:22;;;;;;;13.90;7.57;;;;;;;1.02;64.88;93942.88;5028534;28;20201;-78
2023/03/08 03:34:47;;;;;;;13.47;8.17;;;;;;;1.17;63.88;93929.72;5031094;28;20186;-79
2023/03/08 03:37:13;;;;;;;14.77;7.93;;;;;;;1.14;64.33;93928.22;5031458;28;20187;-78
2023/03/08 03:39:38;;;;;;;11.20;7.63;;;;;;;1.06;64.14;93928.06;5041359;28;20301;-78
2023/03/08 03:42:07;;;;;;;13.60;7.63;;;;;;;1.07;64.59;93929.72;5015259;28;20659;-77
2023/03/08 03:44:33;;;;;;;14.83;8.30;;;;;;;1.03;64.31;93939.38;5035183;28;20186;-79
2023/03/08 03:46:58;;;;;;;12.60;8.63;;;;;;;1.11;64.29;93925.94;5039616;28;20681;-77
2023/03/08 03:49:23;;;;;;;13.03;7.90;;;;;;;1.00;64.95;93936.28;5041064;28;20182;-79
2023/03/08 03:51:49;;;;;;;14.13;8.40;;;;;;;0.99;64.70;93927.00;5043006;28;20190;-77
2023/03/08 03:54:14;;;;;;;13.20;7.83;;;;;;;1.09;64.27;93920.16;5031013;28;20195;-79
2023/03/08 03:56:39;;;;;;;12.50;7.70;;;;;;;1.13;64.33;93919.75;5022169;28;20213;-79
2023/03/08 03:59:04;;;;;;;14.37;7.73;;;;;;;1.16;63.94;93916.16;5037616;28;20214;-78
2023/03/08 04:01:30;;;;;;;14.73;8.17;;;;;;;1.20;63.74;93916.69;5031428;28;20243;-79
2023/03/08 04:03:56;;;;;;;12.27;7.40;;;;;;;1.20;63.78;93917.47;5022829;28;20201;-79
2023/03/08 04:06:22;;;;;;;10.77;7.37;;;;;;;1.15;63.58;93914.53;5029995;28;20210;-79
2023/03/08 04:08:49;;;;;;;10.57;6.50;;;;;;;1.18;63.42;93898.91;5039198;28;20178;-79
2023/03/08 04:11:17;;;;;;;11.13;7.17;;;;;;;1.28;62.96;93899.75;5037286;28;20197;-79
2023/03/08 04:13:43;;;;;;;10.97;6.90;;;;;;;1.28;63.02;93897.19;5023596;28;20182;-79
2023/03/08 04:16:13;;;;;;;13.87;7.47;;;;;;;1.22;62.99;93900.25;5035035;28;20293;-79
2023/03/08 04:18:39;;;;;;;10.87;6.50;;;;;;;1.17;62.99;93902.41;5015961;28;20214;-78
2023/03/08 04:21:04;;;;;;;20.13;7.73;;;;;;;1.20;62.90;93912.38;5027192;28;20714;-79
2023/03/08 04:23:30;;;;;;;16.00;8.60;;;;;;;1.22;63.12;93914.78;5037205;28;20553;-77
2023/03/08 04:25:55;;;;;;;13.40;7.57;;;;;;;1.39;62.69;93907.28;5036469;28;20214;-78
2023/03/08 04:28:20;;;;;;;12.60;7.87;;;;;;;1.31;62.60;93899.47;5033201;28;20191;-79
2023/03/08 04:30:46;;;;;;;13.77;7.50;;;;;;;1.52;62.59;93893.47;5029483;28;20191;-79
2023/03/08 04:33:11;;;;;;;14.43;7.90;;;;;;;1.51;62.43;93881.63;5032097;28;20224;-78
2023/03/08 04:35:36;;;;;;;13.67;7.27;;;;;;;1.48;62.32;93871.63;5029839;28;20617;-78
2023/03/08 04:38:02;;;;;;;13.87;7.87;;;;;;;1.48;62.59;93866.50;5033371;28;20211;-78
2023/03/08 04:40:28;;;;;;;10.53;7.10;;;;;;;1.56;62.49;93856.41;5033784;28;20187;-78
2023/03/08 04:42:53;;;;;;;12.80;7.40;;;;;;;1.56;62.41;93859.78;5030797;28;20285;-78
2023/03/08 04:45:19;;;;;;;12.23;7.07;;;;;;;1.68;62.34;93850.25;5030045;28;20207;-78
2023/03/08 04:47:44;;;;;;;10.87;7.10;;;;;;;1.57;62.22;93843.50;5039968;28;20195;-79
2023/03/08 04:50:10;;;;;;;13.20;7.53;;;;;;;1.64;62.26;93844.56;5035501;28;20671;-78
2023/03/08 04:52:36;;;;;;;10.00;7.13;;;;;;;1.63;62.12;93842.16;5014956;28;20210;-79
2023/03/08 04:55:02;;;;;;;11.10;7.20;;;;;;;1.74;62.17;93829.22;5031035;28;20233;-78
2023/03/08 04:57:27;;;;;;;12.23;8.10;;;;;;;1.76;62.28;93829.06;5045037;28;20217;-79
2023/03/08 04:59:52;;;;;;;10.53;7.50;;;;;;;1.81;61.94;93822.59;5035000;28;20223;-78
2023/03/08 05:02:17;;;;;;;12.30;7.33;;;;;;;1.77;62.71;93828.13;5036561;28;20178;-79
2023/03/08 05:04:43;;;;;;;11.87;7.43;;;;;;;1.78;62.88;93832.31;5034649;28;20248;-78
2023/03/08 05:07:08;;;;;;;13.10;7.70;;;;;;;1.81;62.88;93832.03;5016968;28;20215;-78
2023/03/08 05:09:33;;;;;;;14.40;8.40;;;;;;;1.74;62.93;93831.75;5024743;28;20202;-78
2023/03/08 05:11:59;;;;;;;14.13;8.07;;;;;;;1.60;63.43;93827.09;5037127;28;20207;-78
2023/03/08 05:14:24;;;;;;;11.43;7.90;;;;;;;1.60;64.27;93834.75;5044836;28;20205;-78
2023/03/08 05:16:49;;;;;;;13.40;8.07;;;;;;;1.63;63.80;93809.69;5032312;28;20288;-77
2023/03/08 05:19:15;;;;;;;11.90;7.60;;;;;;;1.77;63.52;93816.16;5020503;28;20293;-79
2023/03/08 05:21:40;;;;;;;12.53;8.23;;;;;;;1.63;64.22;93811.44;5013389;28;20198;-78
2023/03/08 05:24:05;;;;;;;12.23;8.50;;;;;;;1.77;63.53;93813.59;5022148;28;20194;-79
2023/03/08 05:26:31;;;;;;;16.67;8.30;;;;;;;1.70;63.82;93808.22;5036917;28;20241;-78
2023/03/08 05:29:00;;;;;;;11.50;8.00;;;;;;;1.73;63.98;93801.19;5026925;28;20190;-76
2023/03/08 05:31:25;;;;;;;12.07;7.13;;;;;;;1.74;64.03;93806.16;5024432;28;20178;-78
2023/03/08 05:33:51;;;;;;;11.47;7.43;;;;;;;1.84;64.12;93804.41;5034470;28;20202;-78
2023/03/08 05:36:17;;;;;;;12.53;7.30;;;;;;;1.75;64.14;93814.66;5025018;28;20211;-80
2023/03/08 05:38:42;;;;;;;14.90;7.30;;;;;;;1.89;64.04;93817.59;5007978;28;20242;-77
2023/03/08 05:41:11;;;;;;;12.20;7.93;;;;;;;1.93;64.04;93816.38;5028110;28;20187;-78
2023/03/08 05:43:36;;;;;;;10.73;7.20;;;;;;;1.83;64.15;93818.16;5024172;28;20202;-77
2023/03/08 05:46:03;;;;;;;12.83;7.30;;;;;;;2.01;63.57;93812.31;5020336;28;20298;-78
2023/03/08 05:48:29;;;;;;;15.27;7.50;;;;;;;2.12;63.45;93807.03;5030835;28;20191;-77
2023/03/08 05:50:55;;;;;;;12.60;7.53;;;;;;;2.15;63.10;93809.34;5033095;28;20198;-78
2023/03/08 05:53:21;;;;;;;10.23;7.43;;;;;;;2.19;62.64;93802.97;5034903;28;20551;-77
2023/03/08 05:55:46;;;;;;;13.20;7.30;;;;;;;2.12;63.10;93807.03;5005604;28;20268;-77
2023/03/08 05:58:12;;;;;;;11.20;7.03;;;;;;;2.16;62.78;93808.38;5028182;28;20289;-76
2023/03/08 06:00:37;;;;;;;9.87;6.53;;;;;;;2.10;63.19;93803.81;5019264;28;20189;-79
2023/03/08 06:03:03;;;;;;;11.30;7.50;;;;;;;2.20;62.98;93807.94;5022548;28;20202;-79
2023/03/08 06:05:29;;;;;;;10.30;6.47;;;;;;;2.27;63.11;93798.78;5028982;28;20218;-79
2023/03/08 06:07:54;;;;;;;9.87;6.40;;;;;;;2.26;63.60;93801.47;5031264;28;20619;-79
2023/03/08 06:10:20;;;;;;;9.53;6.30;;;;;;;2.38;63.18;93796.97;5025675;28;20246;-78
2023/03/08 06:12:45;;;;;;;10.10;7.13;;;;;;;2.48;62.81;93793.44;5036579;28;20350;-79
2023/03/08 06:15:11;;;;;;;10.13;6.60;;;;;;;2.38;63.29;93791.84;5030562;28;20250;-79
2023/03/08 06:17:37;;;;;;;9.90;6.43;;;;;;;2.46;62.68;93779.94;5021476;28;20191;-79
2023/03/08 06:20:03;;;;;;;10.37;6.27;;;;;;;2.42;63.58;93780.41;5023953;28;20190;-79
2023/03/08 06:22:28;;;;;;;11.73;6.80;;;;;;;2.68;62.61;93777.97;5024989;28;20194;-79
2023/03/08 06:24:53;;;;;;;12.60;7.10;;;;;;;2.78;62.43;93776.97;5016763;28;20190;-80
2023/03/08 06:27:19;;;;;;;10.63;7.03;;;;;;;2.74;62.67;93767.13;5029846;28;20214;-78
2023/03/08 06:29:45;;;;;;;12.70;7.50;;;;;;;2.69;63.12;93762.44;5021416;28;20178;-78
2023/03/08 06:32:10;;;;;;;10.27;6.77;;;;;;;2.81;62.87;93753.59;5036070;28;20183;-77
2023/03/08 06:34:35;;;;;;;13.67;7.23;;;;;;;2.74;63.72;93769.69;5015607;28;20665;-75
2023/03/08 06:37:01;;;;;;;9.57;6.77;;;;;;;2.81;63.73;93768.97;5028431;28;20206;-78
2023/03/08 06:39:29;;;;;;;10.67;7.23;;;;;;;2.94;63.36;93767.84;5022780;28;20209;-78
2023/03/08 06:41:55;;;;;;;11.57;7.17;;;;;;;2.97;63.67;93767.53;5027230;28;20179;-78
2023/03/08 06:44:20;;;;;;;11.93;6.40;;;;;;;2.79;64.95;93770.88;5007919;28;20192;-77
2023/03/08 06:46:46;;;;;;;8.30;5.80;;;;;;;2.67;68.18;93774.63;5024790;28;20210;-78
2023/03/08 06:49:11;;;;;;;7.80;5.83;;;;;;;2.58;70.59;93760.09;5029104;28;20793;-78
2023/03/08 06:51:37;;;;;;;10.17;6.17;;;;;;;2.74;70.64;93750.03;5026700;28;20183;-77
2023/03/08 06:54:02;;;;;;;8.60;6.40;;;;;;;2.86;70.75;93754.94;5019829;28;20194;-78
2023/03/08 06:56:28;;;;;;;9.63;5.90;;;;;;;2.73;71.93;93745.81;5039315;28;20215;-78
2023/03/08 06:58:53;;;;;;;10.37;6.77;;;;;;;2.57;73.84;93752.56;5027787;28;20226;-78
2023/03/08 07:01:18;;;;;;;10.07;5.83;;;;;;;2.70;73.71;93747.88;5028153;28;20180;-78
2023/03/08 07:03:45;;;;;;;8.90;6.17;;;;;;;2.95;72.75;93741.25;5039610;28;20185;-77
2023/03/08 07:06:10;;;;;;;11.80;7.27;;;;;;;3.00;72.54;93736.47;5031225;28;20605;-79
2023/03/08 07:08:36;;;;;;;10.33;6.50;;;;;;;2.98;72.46;93734.06;5019854;28;20266;-78
2023/03/08 07:11:02;;;;;;;11.30;7.00;;;;;;;2.96;72.63;93735.97;5029990;28;20187;-78
2023/03/08 07:13:28;;;;;;;10.57;7.30;;;;;;;2.82;74.70;93721.09;5041775;28;20266;-77
2023/03/08 07:15:54;;;;;;;8.60;6.37;;;;;;;3.00;73.88;93710.84;5035087;28;20699;-78
2023/03/08 07:18:19;;;;;;;11.87;6.80;;;;;;;2.96;75.04;93710.34;5032012;28;20279;-77
2023/03/08 07:20:44;;;;;;;9.43;6.30;;;;;;;2.80;76.15;93710.16;5022100;28;20635;-78
2023/03/08 07:23:10;;;;;;;10.30;6.40;;;;;;;3.01;75.61;93702.22;5026467;28;20659;-77
2023/03/08 07:25:38;;;;;;;10.20;5.50;;;;;;;2.97;76.40;93699.13;5030899;28;20209;-77
2023/03/08 07:28:03;;;;;;;7.80;5.30;;;;;;;3.05;76.48;93694.06;5022057;28;20237;-76
2023/03/08 07:30:28;;;;;;;9.63;6.70;;;;;;;3.00;76.91;93693.69;5029414;28;20252;-78
2023/03/08 07:32:54;;;;;;;9.23;6.70;;;;;;;2.79;77.96;93686.28;5030200;28;20595;-78
2023/03/08 07:35:19;;;;;;;11.70;6.90;;;;;;;2.76;78.81;93691.72;5027850;28;20226;-77
2023/03/08 07:37:45;;;;;;;8.67;6.53;;;;;;;2.72;79.55;93687.03;5025339;28;20188;-78
2023/03/08 07:40:13;;;;;;;9.13;6.40;;;;;;;2.62;81.05;93683.72;5027236;28;20261;-78
2023/03/08 07:42:38;;;;;;;9.63;6.87;;;;;;;2.55;81.90;93671.47;5037589;28;20175;-79
2023/03/08 07:45:04;;;;;;;10.37;7.37;;;;;;;2.61;82.00;93671.88;5021844;28;20707;-78
2023/03/08 07:47:29;;;;;;;9.83;7.40;;;;;;;2.46;83.41;93667.22;5014916;28;20182;-79
2023/03/08 07:49:54;;;;;;;9.23;7.20;;;;;;;2.57;83.36;93657.75;5030671;28;20174;-78
2023/03/08 07:52:19;;;;;;;10.90;7.23;;;;;;;2.64;84.02;93645.94;5025367;28;20185;-78
2023/03/08 07:54:45;;;;;;;10.00;6.47;;;;;;;2.66;83.79;93642.28;5022558;28;20179;-78
2023/03/08 07:57:14;;;;;;;10.33;7.83;;;;;;;2.71;84.87;93632.41;5027503;28;20199;-78
2023/03/08 07:59:40;;;;;;;11.60;7.90;;;;;;;2.80;84.06;93640.97;5030414;28;20198;-79
2023/03/08 08:02:10;;;;;;;13.57;8.63;;;;;;;2.89;84.93;93627.25;5014695;28;20183;-78
2023/03/08 08:04:35;;;;;;;12.40;7.63;;;;;;;2.81;85.26;93627.19;5027667;28;20223;-78
2023/03/08 08:07:00;;;;;;;12.00;8.17;;;;;;;2.82;85.41;93623.66;5030826;28;20261;-79
2023/03/08 08:09:26;;;;;;;13.53;8.67;;;;;;;2.67;86.96;93610.59;5030151;28;20249;-78
2023/03/08 08:11:52;;;;;;;12.77;8.60;;;;;;;2.71;86.56;93611.09;5039206;28;20544;-79
2023/03/08 08:14:17;;;;;;;13.67;9.47;;;;;;;2.60;86.73;93598.50;5028244;28;20187;-79
2023/03/08 08:16:42;;;;;;;15.27;9.70;;;;;;;2.66;87.34;93577.44;5033108;28;20429;-78
2023/03/08 08:19:09;;;;;;;14.40;9.70;;;;;;;2.53;87.16;93575.22;5023336;28;20203;-78
2023/03/08 08:21:35;;;;;;;16.07;9.87;;;;;;;2.51;87.30;93575.38;5021549;28;20190;-79
2023/03/08 08:24:00;;;;;;;16.47;9.77;;;;;;;2.54;87.26;93581.94;5021238;28;20295;-79
2023/03/08 08:26:26;;;;;;;13.80;9.67;;;;;;;2.54;87.55;93576.81;5027910;28;20210;-79
2023/03/08 08:28:52;;;;;;;14.63;10.50;;;;;;;2.57;87.43;93563.75;5020847;28;20183;-79
2023/03/08 08:31:20;;;;;;;13.63;9.33;;;;;;;2.62;87.41;93569.22;5026013;28;20183;-79
2023/03/08 08:33:45;;;;;;;13.73;9.43;;;;;;;2.63;87.30;93570.81;5028157;28;20186;-78
2023/03/08 08:36:13;;;;;;;14.73;9.93;;;;;;;2.69;87.38;93562.53;5023201;28;20215;-79
2023/03/08 08:38:39;;;;;;;13.47;9.70;;;;;;;2.64;87.81;93556.25;5012929;28;20686;-78
2023/03/08 08:41:06;;;;;;;14.07;9.40;;;;;;;2.61;88.68;93551.44;5016071;28;20193;-79
2023/03/08 08:43:33;;;;;;;13.43;9.50;;;;;;;2.74;88.22;93559.53;5027601;28;20266;-79
2023/03/08 08:45:59;;;;;;;16.00;9.83;;;;;;;2.88;87.51;93550.50;5033261;28;20203;-79
2023/03/08 08:48:25;;;;;;;14.37;8.83;;;;;;;2.84;87.81;93538.00;5023415;28;20186;-79
2023/03/08 08:50:51;;;;;;;15.50;10.13;;;;;;;2.90;87.75;93535.75;5018582;28;20194;-79
2023/03/08 08:53:17;;;;;;;13.83;9.37;;;;;;;2.84;88.33;93537.19;5028433;28;20310;-80
2023/03/08 08:55:43;;;;;;;15.40;10.00;;;;;;;2.92;88.43;93529.56;5028503;28;20207;-79
2023/03/08 08:58:08;;;;;;;13.63;9.33;;;;;;;3.17;87.69;93527.13;5036207;28;20302;-80
2023/03/08 09:00:34;;;;;;;15.47;10.07;;;;;;;3.20;88.51;93522.50;5027929;28;20264;-79
2023/03/08 09:03:00;;;;;;;16.77;9.83;;;;;;;3.25;88.45;93525.41;5030754;28;20182;-79
2023/03/08 09:05:26;;;;;;;14.00;9.87;;;;;;;3.18;89.98;93523.59;5021902;28;20198;-79
2023/03/08 09:07:57;;;;;;;16.97;10.43;;;;;;;3.18;90.43;93524.44;5030720;28;20239;-80
2023/03/08 09:10:23;;;;;;;15.37;9.90;;;;;;;2.90;92.95;93516.06;5022354;28;20241;-79
2023/03/08 09:12:49;;;;;;;12.63;9.20;;;;;;;2.91;93.41;93502.28;5026641;28;20183;-79
2023/03/08 09:15:14;;;;;;;12.87;9.37;;;;;;;3.11;93.40;93497.78;5025599;28;20350;-78
2023/03/08 09:17:39;;;;;;;14.43;9.17;;;;;;;3.15;93.48;93508.50;5026127;28;20184;-79
2023/03/08 09:20:08;;;;;;;13.30;9.10;;;;;;;2.97;93.53;93500.88;5035349;28;20569;-80
2023/03/08 09:22:36;;;;;;;13.60;9.27;;;;;;;3.05;94.00;93499.16;5033901;28;20193;-79
2023/03/08 09:25:03;;;;;;;14.70;9.23;;;;;;;3.33;93.46;93478.47;5018353;28;20190;-79
2023/03/08 09:27:28;;;;;;;13.73;8.93;;;;;;;3.23;94.60;93482.91;5039020;28;20179;-79
2023/03/08 09:29:53;;;;;;;12.17;9.20;;;;;;;3.23;94.39;93475.22;5030449;28;20192;-78
2023/03/08 09:32:19;;;;;;;12.07;10.13;;;;;;;3.50;94.35;93466.50;5033869;28;20335;-78
2023/03/08 09:34:44;;;;;;;13.27;9.63;;;;;;;3.50;93.85;93466.50;5033776;28;20187;-78
2023/03/08 09:37:10;;;;;;;13.97;9.83;;;;;;;3.57;94.42;93460.59;5038633;28;20199;-80
2023/03/08 09:39:37;;;;;;;12.37;8.77;;;;;;;3.24;96.49;93458.88;5031651;28;20229;-79
2023/03/08 09:42:02;;;;;;;13.50;9.67;;;;;;;3.43;95.85;93458.59;5054012;28;20186;-79
2023/03/08 09:44:58;;;;;;;13.70;9.47;;;;;;;3.76;94.63;93461.28;5041792;28;20200;-79
2023/03/08 09:47:38;;;;;;;13.47;9.70;;;;;;;3.82;94.94;93443.50;5037125;28;20277;-79
2023/03/08 09:50:11;;;;;;;12.47;8.63;;;;;;;3.80;95.39;93447.16;5032056;28;20197;-80
2023/03/08 09:52:42;;;;;;;12.17;9.33;;;;;;;4.16;94.86;93451.06;5027929;28;20179;-79
2023/03/08 09:55:19;;;;;;;10.67;8.07;;;;;;;4.49;94.26;93438.19;5013159;28;20213;-79
2023/03/08 09:57:54;;;;;;;8.33;6.33;;;;;;;4.57;94.38;93433.06;5035917;28;20190;-79
2023/03/08 10:00:26;;;;;;;11.10;7.20;;;;;;;4.36;96.26;93440.47;5035120;28;20178;-80
2023/03/08 10:03:15;;;;;;;10.00;6.07;;;;;;;4.87;97.52;93441.06;5032281;28;20543;-80
2023/03/08 10:05:40;;;;;;;7.40;4.10;;;;;;;5.02;98.85;93431.69;5019112;28;20205;-80
2023/03/08 10:08:31;;;;;;;4.20;2.97;;;;;;;5.10;99.78;93434.22;5033731;28;20734;-79
2023/03/08 10:11:00;;;;;;;2.87;2.43;;;;;;;5.20;100.00;93424.53;5028338;28;20188;-79
2023/03/08 10:13:30;;;;;;;3.33;2.73;;;;;;;5.70;98.88;93425.91;5029700;28;20189;-79
2023/03/08 10:16:20;;;;;;;4.03;2.17;;;;;;;5.68;99.42;93435.59;5028168;28;20213;-80
2023/03/08 10:19:05;;;;;;;2.97;1.80;;;;;;;5.96;99.46;93431.59;5020700;28;20211;-80
2023/03/08 10:21:33;;;;;;;2.87;1.80;;;;;;;6.16;98.00;93426.78;5028740;28;20187;-79
2023/03/08 10:24:08;;;;;;;2.23;1.70;;;;;;;6.19;98.10;93420.50;5013974;28;20198;-80
2023/03/08 10:26:34;;;;;;;2.10;1.47;;;;;;;6.25;98.16;93417.19;5028709;28;20229;-80
2023/03/08 10:28:59;;;;;;;1.37;1.17;;;;;;;6.25;100.00;93417.19;5021665;28;20179;-80
2023/03/08 10:31:27;;;;;;;1.80;1.40;;;;;;;6.41;98.05;93426.59;5026528;28;20195;-79
2023/03/08 10:34:00;;;;;;;2.17;1.30;;;;;;;6.24;98.16;93410.44;5013247;28;20175;-79
2023/03/08 10:36:25;;;;;;;1.90;1.30;;;;;;;6.61;95.99;93421.75;5007100;28;20217;-80
2023/03/08 10:38:59;;;;;;;2.47;1.20;;;;;;;6.69;95.18;93414.72;5025040;28;20191;-79
2023/03/08 10:41:25;;;;;;;1.83;1.20;;;;;;;7.01;93.33;93398.13;5019399;28;20272;-79
2023/03/08 10:43:53;;;;;;;1.70;1.60;;;;;;;7.18;92.86;93403.09;5017969;28;20190;-80
2023/03/08 10:46:23;;;;;;;1.90;1.50;;;;;;;7.33;92.59;93406.47;5020276;28;20206;-80
2023/03/08 10:48:49;;;;;;;2.33;1.40;;;;;;;7.32;91.43;93404.84;5019823;28;20175;-79
2023/03/08 10:51:20;;;;;;;1.30;1.00;;;;;;;7.64;90.16;93398.50;5017645;28;20189;-79
2023/03/08 10:54:03;;;;;;;0.97;0.97;;;;;;;7.69;88.32;93405.72;5018020;28;20259;-79
2023/03/08 10:56:45;;;;;;;1.27;1.10;;;;;;;8.06;87.69;93384.03;5030214;28;20734;-78
2023/03/08 10:59:20;;;;;;;0.93;0.70;;;;;;;7.81;88.73;93404.25;5026386;28;20203;-78
2023/03/08 11:01:51;;;;;;;1.87;1.10;;;;;;;7.85;91.78;93395.94;5027779;28;20186;-78
2023/03/08 11:04:22;;;;;;;0.90;0.70;;;;;;;8.03;91.99;93415.38;5013102;28;20628;-79
2023/03/08 11:06:47;;;;;;;1.20;1.03;;;;;;;7.98;91.66;93430.66;5029405;28;20198;-79
2023/03/08 11:09:24;;;;;;;0.90;0.70;;;;;;;7.57;91.40;93423.44;5019460;28;20192;-80
2023/03/08 11:11:50;;;;;;;1.13;0.90;;;;;;;7.83;91.16;93417.78;5002380;28;20690;-78
2023/03/08 11:14:15;;;;;;;1.13;0.90;;;;;;;7.93;89.87;93433.78;5020348;28;20190;-79
2023/03/08 11:16:40;;;;;;;2.10;0.90;;;;;;;8.12;88.41;93437.56;5023089;28;20211;-78
2023/03/08 11:19:16;;;;;;;0.70;0.70;;;;;;;8.25;87.09;93429.94;5018654;28;20213;-77
2023/03/08 11:21:50;;;;;;;1.00;0.90;;;;;;;8.03;87.08;93429.09;5007845;28;20258;-78
2023/03/08 11:24:21;;;;;;;3.03;0.90;;;;;;;7.90;87.97;93418.66;5017691;28;20189;-79
2023/03/08 11:27:11;;;;;;;1.43;1.13;;;;;;;8.30;nan;93429.38;5018771;28;21115;-78
2023/03/08 11:30:13;;;;;;;1.20;0.80;;;;;;;8.41;86.40;93421.16;5031814;28;20190;-79
2023/03/08 11:32:49;;;;;;;0.93;0.83;;;;;;;8.20;86.42;93422.72;5023075;28;20619;-78
2023/03/08 11:35:34;;;;;;;0.83;0.83;;;;;;;8.43;85.46;93424.34;5030213;28;20887;-79